Startpagina
METAR-TAF:

METAR-TAF

Vliegvelden :

Florianópolis, Santa Catarina, Brazilië

Aeroporto Internacional Hercílio Luz

breedte: 27-40S, lengte: 048-33W, hoogte: 5 m

Actueel weer

Dit bericht is 54 minuten geleden gemaakt, om 01:00 UTC
Wind 4 kt uit het noordnoordoosten
Temperatuur 20°C
Vochtigheid 94%
Druk 1022 hPa
Zicht 10 km of meer
Verspreide wolken op 1100 ft

METAR: SBFL 260100Z 02004KT 9999 SCT011 20/19 Q1022

Tijdstip: 22:54 (01:54 UTC)

Verwachting

Dit bericht is 4 uur en het 24 minuten geleden gemaakt, om 21:30 UTC
Verwachting geldig van 26 om 00 UTC tot 26 om 24 UTC
Wind 10 kt uit het noordnoordoosten
Zicht 10 km of meer
Verspreide wolken op 2500 ft
Kans 30%
van 26 om 00 UTC tot 26 om 06 UTC
Gebroken wolken op 1500 ft
Kans 30%
van 26 om 06 UTC tot 26 om 12 UTC
Wind 7 kt uit het noorden
Zicht: 7000 m
Gebroken wolken op 1200 ft
regenbuien

TAF: SBFL 252130Z 2600/2624 02010KT 9999 SCT025 TN19/2609Z TX24/2615Z PROB30 2600/2606 BKN015 PROB30 2606/2612 35007KT 7000 SHRA BKN012 RMK PDN

Waarnemingen en weersverwachtingen van meer dan 4000 vliegvelden (METAR en TAF).

De beschikbare stations zijn de gele en rode punten op de kaart.

Ga met uw muis naar het station om de naam te zien.

Klik dan om waarnemingen en weersverwachtingen te zien.

kaart wijzigen: klik op de groene knoppen met een zwart kruis om in te zoomen, op de groene knop met een streepje om uit te zoomen of op de groene pijlen voor aangrenzende kaarten.


METAR-TAF: